sensor_id;sensor_type;location;lat;lon;timestamp;pressure;altitude;pressure_sealevel;temperature;humidity
7168;BME280;3625;51.762;14.320;2022-12-18T00:01:30;102395.22;;;-2.53;100.00
7168;BME280;3625;51.762;14.320;2022-12-18T00:04:06;102401.19;;;-2.54;100.00
7168;BME280;3625;51.762;14.320;2022-12-18T00:06:36;102400.38;;;-2.53;100.00
7168;BME280;3625;51.762;14.320;2022-12-18T00:09:05;102393.69;;;-2.49;100.00
7168;BME280;3625;51.762;14.320;2022-12-18T00:11:34;102391.19;;;-2.48;100.00
7168;BME280;3625;51.762;14.320;2022-12-18T00:14:02;102390.59;;;-2.44;100.00
7168;BME280;3625;51.762;14.320;2022-12-18T00:16:31;102350.72;;;-2.74;100.00
7168;BME280;3625;51.762;14.320;2022-12-18T00:19:02;102401.38;;;-2.51;100.00
7168;BME280;3625;51.762;14.320;2022-12-18T00:21:32;102414.25;;;-2.52;100.00
7168;BME280;3625;51.762;14.320;2022-12-18T00:24:01;102340.75;;;-2.95;100.00
7168;BME280;3625;51.762;14.320;2022-12-18T00:26:33;102414.41;;;-2.49;100.00
7168;BME280;3625;51.762;14.320;2022-12-18T00:29:05;102419.59;;;-2.49;100.00
7168;BME280;3625;51.762;14.320;2022-12-18T00:31:34;102412.03;;;-2.46;100.00
7168;BME280;3625;51.762;14.320;2022-12-18T00:34:03;102421.28;;;-2.50;100.00
7168;BME280;3625;51.762;14.320;2022-12-18T00:36:34;102411.91;;;-2.48;100.00
7168;BME280;3625;51.762;14.320;2022-12-18T00:39:04;102388.09;;;-2.70;100.00
7168;BME280;3625;51.762;14.320;2022-12-18T00:41:34;102112.72;;;-4.38;100.00
7168;BME280;3625;51.762;14.320;2022-12-18T00:44:35;102408.59;;;-2.73;100.00
7168;BME280;3625;51.762;14.320;2022-12-18T00:47:03;102363.97;;;-2.97;100.00
7168;BME280;3625;51.762;14.320;2022-12-18T00:49:32;102431.97;;;-2.58;100.00
7168;BME280;3625;51.762;14.320;2022-12-18T00:52:01;102426.00;;;-2.57;100.00
7168;BME280;3625;51.762;14.320;2022-12-18T00:54:29;102417.34;;;-2.58;100.00
7168;BME280;3625;51.762;14.320;2022-12-18T00:56:59;102407.06;;;-2.56;100.00
7168;BME280;3625;51.762;14.320;2022-12-18T00:59:27;102300.19;;;-3.23;100.00
7168;BME280;3625;51.762;14.320;2022-12-18T01:01:57;102412.34;;;-2.55;100.00
7168;BME280;3625;51.762;14.320;2022-12-18T01:04:25;102410.66;;;-2.54;100.00
7168;BME280;3625;51.762;14.320;2022-12-18T01:06:54;102415.75;;;-2.56;100.00
7168;BME280;3625;51.762;14.320;2022-12-18T01:09:22;102415.75;;;-2.56;100.00
7168;BME280;3625;51.762;14.320;2022-12-18T01:11:52;102417.63;;;-2.53;100.00
7168;BME280;3625;51.762;14.320;2022-12-18T01:14:21;102413.34;;;-2.53;100.00
7168;BME280;3625;51.762;14.320;2022-12-18T01:16:50;102411.56;;;-2.54;100.00
7168;BME280;3625;51.762;14.320;2022-12-18T01:19:18;102408.06;;;-2.54;100.00
7168;BME280;3625;51.762;14.320;2022-12-18T01:21:47;102412.13;;;-2.45;100.00
7168;BME280;3625;51.762;14.320;2022-12-18T01:24:15;102386.81;;;-2.49;100.00
7168;BME280;3625;51.762;14.320;2022-12-18T01:26:43;102415.38;;;-2.34;100.00
7168;BME280;3625;51.762;14.320;2022-12-18T01:29:13;102391.28;;;-2.46;100.00
7168;BME280;3625;51.762;14.320;2022-12-18T01:31:43;102422.31;;;-2.33;100.00
7168;BME280;3625;51.762;14.320;2022-12-18T01:34:12;102418.56;;;-2.38;100.00
7168;BME280;3625;51.762;14.320;2022-12-18T01:36:41;102431.25;;;-2.43;100.00
7168;BME280;3625;51.762;14.320;2022-12-18T01:39:14;102424.50;;;-2.54;100.00
7168;BME280;3625;51.762;14.320;2022-12-18T01:41:42;102403.44;;;-2.73;100.00
7168;BME280;3625;51.762;14.320;2022-12-18T01:45:00;102364.53;;;-3.01;100.00
7168;BME280;3625;51.762;14.320;2022-12-18T01:47:37;102432.06;;;-2.57;100.00
7168;BME280;3625;51.762;14.320;2022-12-18T01:50:10;102430.47;;;-2.55;100.00
7168;BME280;3625;51.762;14.320;2022-12-18T01:52:42;102400.41;;;-2.66;100.00
7168;BME280;3625;51.762;14.320;2022-12-18T01:55:15;102396.75;;;-2.70;100.00
7168;BME280;3625;51.762;14.320;2022-12-18T01:57:46;102401.94;;;-2.70;100.00
7168;BME280;3625;51.762;14.320;2022-12-18T02:00:20;102443.13;;;-2.46;100.00
7168;BME280;3625;51.762;14.320;2022-12-18T02:02:53;102414.00;;;-2.70;100.00
7168;BME280;3625;51.762;14.320;2022-12-18T02:05:37;102425.94;;;-2.72;100.00
7168;BME280;3625;51.762;14.320;2022-12-18T02:08:14;102445.56;;;-2.62;100.00
7168;BME280;3625;51.762;14.320;2022-12-18T02:10:53;102300.56;;;-3.58;100.00
7168;BME280;3625;51.762;14.320;2022-12-18T02:13:35;102446.09;;;-2.81;100.00
7168;BME280;3625;51.762;14.320;2022-12-18T02:16:12;102464.59;;;-2.75;100.00
7168;BME280;3625;51.762;14.320;2022-12-18T02:18:50;102474.66;;;-2.67;100.00
7168;BME280;3625;51.762;14.320;2022-12-18T02:21:32;102413.16;;;-2.97;100.00
7168;BME280;3625;51.762;14.320;2022-12-18T02:24:18;102470.78;;;-2.73;100.00
7168;BME280;3625;51.762;14.320;2022-12-18T02:26:58;102447.97;;;-2.92;100.00
7168;BME280;3625;51.762;14.320;2022-12-18T02:29:35;102467.81;;;-2.79;100.00
7168;BME280;3625;51.762;14.320;2022-12-18T02:32:11;102437.03;;;-2.88;100.00
7168;BME280;3625;51.762;14.320;2022-12-18T02:34:44;102445.97;;;-2.83;100.00
7168;BME280;3625;51.762;14.320;2022-12-18T02:37:18;102432.56;;;-2.90;100.00
7168;BME280;3625;51.762;14.320;2022-12-18T02:39:52;102457.44;;;-2.79;100.00
7168;BME280;3625;51.762;14.320;2022-12-18T02:42:25;102448.56;;;-2.83;100.00
7168;BME280;3625;51.762;14.320;2022-12-18T02:44:56;102391.06;;;-3.18;100.00
7168;BME280;3625;51.762;14.320;2022-12-18T02:47:32;102463.69;;;-2.76;100.00
7168;BME280;3625;51.762;14.320;2022-12-18T02:50:10;102446.41;;;-2.90;100.00
7168;BME280;3625;51.762;14.320;2022-12-18T02:52:53;102423.41;;;-2.98;100.00
7168;BME280;3625;51.762;14.320;2022-12-18T02:55:39;102457.44;;;-2.79;100.00
7168;BME280;3625;51.762;14.320;2022-12-18T02:58:21;102459.31;;;-2.77;100.00
7168;BME280;3625;51.762;14.320;2022-12-18T03:01:07;102417.31;;;-2.99;100.00
7168;BME280;3625;51.762;14.320;2022-12-18T03:03:42;102420.44;;;-3.05;100.00
7168;BME280;3625;51.762;14.320;2022-12-18T03:06:20;102453.06;;;-2.80;100.00
7168;BME280;3625;51.762;14.320;2022-12-18T03:08:58;102481.13;;;-2.73;100.00
7168;BME280;3625;51.762;14.320;2022-12-18T03:11:34;102471.28;;;-2.79;100.00
7168;BME280;3625;51.762;14.320;2022-12-18T03:14:23;102470.41;;;-2.79;100.00
7168;BME280;3625;51.762;14.320;2022-12-18T03:17:00;102472.38;;;-2.75;100.00
7168;BME280;3625;51.762;14.320;2022-12-18T03:19:32;102429.75;;;-2.93;100.00
7168;BME280;3625;51.762;14.320;2022-12-18T03:22:05;102369.28;;;-3.22;100.00
7168;BME280;3625;51.762;14.320;2022-12-18T03:24:48;102454.13;;;-2.77;100.00
7168;BME280;3625;51.762;14.320;2022-12-18T03:27:20;102476.53;;;-2.64;100.00
7168;BME280;3625;51.762;14.320;2022-12-18T03:30:02;102482.72;;;-2.62;100.00
7168;BME280;3625;51.762;14.320;2022-12-18T03:32:42;102479.13;;;-2.64;100.00
7168;BME280;3625;51.762;14.320;2022-12-18T03:35:16;102464.00;;;-2.71;100.00
7168;BME280;3625;51.762;14.320;2022-12-18T03:37:48;102474.25;;;-2.59;100.00
7168;BME280;3625;51.762;14.320;2022-12-18T03:40:19;102476.53;;;-2.64;100.00
7168;BME280;3625;51.762;14.320;2022-12-18T03:42:56;102371.75;;;-3.23;100.00
7168;BME280;3625;51.762;14.320;2022-12-18T03:45:36;102458.13;;;-2.82;100.00
7168;BME280;3625;51.762;14.320;2022-12-18T03:48:12;102368.47;;;-3.34;100.00
7168;BME280;3625;51.762;14.320;2022-12-18T03:50:49;102476.97;;;-2.71;100.00
7168;BME280;3625;51.762;14.320;2022-12-18T03:53:32;102475.44;;;-2.68;100.00
7168;BME280;3625;51.762;14.320;2022-12-18T03:56:06;102430.66;;;-2.93;100.00
7168;BME280;3625;51.762;14.320;2022-12-18T03:58:41;102456.66;;;-2.91;100.00
7168;BME280;3625;51.762;14.320;2022-12-18T04:01:24;102482.63;;;-2.77;100.00
7168;BME280;3625;51.762;14.320;2022-12-18T04:03:57;102487.13;;;-2.74;100.00
7168;BME280;3625;51.762;14.320;2022-12-18T04:06:32;102498.47;;;-2.85;100.00
7168;BME280;3625;51.762;14.320;2022-12-18T04:09:00;102499.88;;;-2.90;100.00
7168;BME280;3625;51.762;14.320;2022-12-18T04:11:31;102463.94;;;-3.12;100.00
7168;BME280;3625;51.762;14.320;2022-12-18T04:14:02;102399.06;;;-3.55;100.00
7168;BME280;3625;51.762;14.320;2022-12-18T04:16:35;102439.75;;;-3.39;100.00
7168;BME280;3625;51.762;14.320;2022-12-18T04:19:07;102506.03;;;-3.01;100.00
7168;BME280;3625;51.762;14.320;2022-12-18T04:21:39;102492.41;;;-2.99;100.00
7168;BME280;3625;51.762;14.320;2022-12-18T04:24:10;102491.22;;;-2.91;100.00
7168;BME280;3625;51.762;14.320;2022-12-18T04:26:45;102487.13;;;-2.87;100.00
7168;BME280;3625;51.762;14.320;2022-12-18T04:29:21;102487.91;;;-2.75;100.00
7168;BME280;3625;51.762;14.320;2022-12-18T04:31:51;102497.56;;;-2.73;100.00
7168;BME280;3625;51.762;14.320;2022-12-18T04:34:20;102474.66;;;-2.93;100.00
7168;BME280;3625;51.762;14.320;2022-12-18T04:36:52;102518.03;;;-2.77;100.00
7168;BME280;3625;51.762;14.320;2022-12-18T04:39:22;102520.50;;;-2.79;100.00
7168;BME280;3625;51.762;14.320;2022-12-18T04:41:54;102515.44;;;-2.77;100.00
7168;BME280;3625;51.762;14.320;2022-12-18T04:44:23;102525.38;;;-2.83;100.00
7168;BME280;3625;51.762;14.320;2022-12-18T04:46:52;102465.94;;;-3.08;100.00
7168;BME280;3625;51.762;14.320;2022-12-18T04:49:23;102502.16;;;-2.82;100.00
7168;BME280;3625;51.762;14.320;2022-12-18T04:51:51;102513.81;;;-2.75;100.00
7168;BME280;3625;51.762;14.320;2022-12-18T04:54:20;102492.41;;;-2.99;100.00
7168;BME280;3625;51.762;14.320;2022-12-18T04:56:48;102509.81;;;-2.83;100.00
7168;BME280;3625;51.762;14.320;2022-12-18T04:59:17;102523.09;;;-2.79;100.00
7168;BME280;3625;51.762;14.320;2022-12-18T05:01:45;102519.28;;;-2.84;100.00
7168;BME280;3625;51.762;14.320;2022-12-18T05:04:15;102520.69;;;-2.89;100.00
7168;BME280;3625;51.762;14.320;2022-12-18T05:06:44;102525.56;;;-2.93;100.00
7168;BME280;3625;51.762;14.320;2022-12-18T05:09:12;102522.06;;;-2.94;100.00
7168;BME280;3625;51.762;14.320;2022-12-18T05:11:40;102533.94;;;-2.84;100.00
7168;BME280;3625;51.762;14.320;2022-12-18T05:14:09;102436.16;;;-3.28;100.00
7168;BME280;3625;51.762;14.320;2022-12-18T05:16:37;102539.59;;;-2.77;100.00
7168;BME280;3625;51.762;14.320;2022-12-18T05:19:06;102538.81;;;-2.89;100.00
7168;BME280;3625;51.762;14.320;2022-12-18T05:21:35;102533.75;;;-2.87;100.00
7168;BME280;3625;51.762;14.320;2022-12-18T05:24:05;102501.66;;;-3.03;100.00
7168;BME280;3625;51.762;14.320;2022-12-18T05:26:33;102338.03;;;-3.91;100.00
7168;BME280;3625;51.762;14.320;2022-12-18T05:29:01;102523.19;;;-2.90;100.00
7168;BME280;3625;51.762;14.320;2022-12-18T05:31:30;102475.97;;;-3.26;100.00
7168;BME280;3625;51.762;14.320;2022-12-18T05:34:05;102499.09;;;-3.16;100.00
7168;BME280;3625;51.762;14.320;2022-12-18T05:36:35;102442.63;;;-3.48;100.00
7168;BME280;3625;51.762;14.320;2022-12-18T05:39:03;102481.66;;;-3.31;100.00
7168;BME280;3625;51.762;14.320;2022-12-18T05:41:32;102542.00;;;-2.93;100.00
7168;BME280;3625;51.762;14.320;2022-12-18T05:44:00;102469.50;;;-3.32;100.00
7168;BME280;3625;51.762;14.320;2022-12-18T05:46:29;102523.47;;;-2.99;100.00
7168;BME280;3625;51.762;14.320;2022-12-18T05:49:00;102543.72;;;-2.80;100.00
7168;BME280;3625;51.762;14.320;2022-12-18T05:51:29;102556.34;;;-2.72;100.00
7168;BME280;3625;51.762;14.320;2022-12-18T05:53:59;102560.84;;;-2.69;100.00
7168;BME280;3625;51.762;14.320;2022-12-18T05:56:27;102489.13;;;-3.10;100.00
7168;BME280;3625;51.762;14.320;2022-12-18T05:58:56;102542.81;;;-2.81;100.00
7168;BME280;3625;51.762;14.320;2022-12-18T06:01:26;102473.22;;;-3.29;100.00
7168;BME280;3625;51.762;14.320;2022-12-18T06:03:55;102566.41;;;-2.76;100.00
7168;BME280;3625;51.762;14.320;2022-12-18T06:06:26;102567.78;;;-2.68;100.00
7168;BME280;3625;51.762;14.320;2022-12-18T06:08:56;102565.72;;;-2.60;100.00
7168;BME280;3625;51.762;14.320;2022-12-18T06:11:26;102451.00;;;-3.38;100.00
7168;BME280;3625;51.762;14.320;2022-12-18T06:13:56;102590.63;;;-2.76;100.00
7168;BME280;3625;51.762;14.320;2022-12-18T06:16:28;102584.53;;;-2.76;100.00
7168;BME280;3625;51.762;14.320;2022-12-18T06:18:58;102585.38;;;-2.77;100.00
7168;BME280;3625;51.762;14.320;2022-12-18T06:21:28;102517.19;;;-3.16;100.00
7168;BME280;3625;51.762;14.320;2022-12-18T06:23:58;102561.03;;;-2.92;100.00
7168;BME280;3625;51.762;14.320;2022-12-18T06:26:29;102583.47;;;-2.80;100.00
7168;BME280;3625;51.762;14.320;2022-12-18T06:28:57;102580.97;;;-2.78;100.00
7168;BME280;3625;51.762;14.320;2022-12-18T06:31:26;102585.66;;;-2.73;100.00
7168;BME280;3625;51.762;14.320;2022-12-18T06:33:55;102559.03;;;-2.83;100.00
7168;BME280;3625;51.762;14.320;2022-12-18T06:36:23;102593.13;;;-2.64;100.00
7168;BME280;3625;51.762;14.320;2022-12-18T06:38:54;102590.31;;;-2.67;100.00
7168;BME280;3625;51.762;14.320;2022-12-18T06:41:24;102593.91;;;-2.65;100.00
7168;BME280;3625;51.762;14.320;2022-12-18T06:43:53;102588.72;;;-2.65;100.00
7168;BME280;3625;51.762;14.320;2022-12-18T06:46:27;102600.00;;;-2.64;100.00
7168;BME280;3625;51.762;14.320;2022-12-18T06:48:55;102474.97;;;-3.41;100.00
7168;BME280;3625;51.762;14.320;2022-12-18T06:51:24;102601.00;;;-2.62;100.00
7168;BME280;3625;51.762;14.320;2022-12-18T06:53:53;102607.19;;;-2.60;100.00
7168;BME280;3625;51.762;14.320;2022-12-18T06:56:21;102382.19;;;-3.88;100.00
7168;BME280;3625;51.762;14.320;2022-12-18T06:58:49;102537.22;;;-3.00;100.00
7168;BME280;3625;51.762;14.320;2022-12-18T07:01:19;102590.94;;;-2.71;100.00
7168;BME280;3625;51.762;14.320;2022-12-18T07:03:52;102574.47;;;-2.85;100.00
7168;BME280;3625;51.762;14.320;2022-12-18T07:06:24;102637.66;;;-2.56;100.00
7168;BME280;3625;51.762;14.320;2022-12-18T07:08:54;102637.28;;;-2.62;100.00
7168;BME280;3625;51.762;14.320;2022-12-18T07:11:22;102635.38;;;-2.65;100.00
7168;BME280;3625;51.762;14.320;2022-12-18T07:13:52;102642.34;;;-2.64;100.00
7168;BME280;3625;51.762;14.320;2022-12-18T07:16:22;102641.56;;;-2.63;100.00
7168;BME280;3625;51.762;14.320;2022-12-18T07:18:52;102615.84;;;-2.73;100.00
7168;BME280;3625;51.762;14.320;2022-12-18T07:21:21;102649.81;;;-2.55;100.00
7168;BME280;3625;51.762;14.320;2022-12-18T07:23:50;102649.03;;;-2.54;100.00
7168;BME280;3625;51.762;14.320;2022-12-18T07:26:21;102627.97;;;-2.59;100.00
7168;BME280;3625;51.762;14.320;2022-12-18T07:28:55;102644.25;;;-2.48;100.00
7168;BME280;3625;51.762;14.320;2022-12-18T07:31:27;102646.72;;;-2.50;100.00
7168;BME280;3625;51.762;14.320;2022-12-18T07:33:55;102610.56;;;-2.61;100.00
7168;BME280;3625;51.762;14.320;2022-12-18T07:36:24;102562.03;;;-3.03;100.00
7168;BME280;3625;51.762;14.320;2022-12-18T07:38:52;102657.72;;;-2.54;100.00
7168;BME280;3625;51.762;14.320;2022-12-18T07:41:21;102652.91;;;-2.61;100.00
7168;BME280;3625;51.762;14.320;2022-12-18T07:43:49;102667.66;;;-2.47;100.00
7168;BME280;3625;51.762;14.320;2022-12-18T07:46:18;102617.53;;;-2.74;100.00
7168;BME280;3625;51.762;14.320;2022-12-18T07:48:48;102661.00;;;-2.43;100.00
7168;BME280;3625;51.762;14.320;2022-12-18T07:51:18;102586.34;;;-2.88;100.00
7168;BME280;3625;51.762;14.320;2022-12-18T07:53:46;102644.47;;;-2.45;100.00
7168;BME280;3625;51.762;14.320;2022-12-18T07:56:19;102648.94;;;-2.43;100.00
7168;BME280;3625;51.762;14.320;2022-12-18T07:58:54;102651.53;;;-2.43;100.00
7168;BME280;3625;51.762;14.320;2022-12-18T08:01:23;102629.00;;;-2.57;100.00
7168;BME280;3625;51.762;14.320;2022-12-18T08:03:53;102641.66;;;-2.35;100.00
7168;BME280;3625;51.762;14.320;2022-12-18T08:06:22;102640.88;;;-2.34;100.00
7168;BME280;3625;51.762;14.320;2022-12-18T08:08:52;102637.97;;;-2.52;100.00
7168;BME280;3625;51.762;14.320;2022-12-18T08:11:23;102657.00;;;-2.38;100.00
7168;BME280;3625;51.762;14.320;2022-12-18T08:13:52;102654.53;;;-2.37;100.00
7168;BME280;3625;51.762;14.320;2022-12-18T08:16:22;102655.22;;;-2.39;100.00
7168;BME280;3625;51.762;14.320;2022-12-18T08:18:53;102650.25;;;-2.36;100.00
7168;BME280;3625;51.762;14.320;2022-12-18T08:21:24;102649.56;;;-2.34;100.00
7168;BME280;3625;51.762;14.320;2022-12-18T08:23:55;102629.19;;;-2.41;100.00
7168;BME280;3625;51.762;14.320;2022-12-18T08:26:27;102602.06;;;-2.59;100.00
7168;BME280;3625;51.762;14.320;2022-12-18T08:28:58;102650.41;;;-2.33;100.00
7168;BME280;3625;51.762;14.320;2022-12-18T08:31:29;102617.75;;;-2.44;100.00
7168;BME280;3625;51.762;14.320;2022-12-18T08:33:59;102644.94;;;-2.24;100.00
7168;BME280;3625;51.762;14.320;2022-12-18T08:36:28;102641.47;;;-2.25;100.00
7168;BME280;3625;51.762;14.320;2022-12-18T08:38:57;102645.03;;;-2.23;100.00
7168;BME280;3625;51.762;14.320;2022-12-18T08:41:26;102613.63;;;-2.41;100.00
7168;BME280;3625;51.762;14.320;2022-12-18T08:43:54;102609.34;;;-2.40;100.00
7168;BME280;3625;51.762;14.320;2022-12-18T08:46:42;102654.31;;;-2.13;100.00
7168;BME280;3625;51.762;14.320;2022-12-18T08:49:13;102654.78;;;-2.06;100.00
7168;BME280;3625;51.762;14.320;2022-12-18T08:51:41;102664.09;;;-2.09;100.00
7168;BME280;3625;51.762;14.320;2022-12-18T08:54:12;102587.16;;;-2.63;100.00
7168;BME280;3625;51.762;14.320;2022-12-18T08:56:40;102573.50;;;-2.74;100.00
7168;BME280;3625;51.762;14.320;2022-12-18T08:59:09;102593.34;;;-2.61;100.00
7168;BME280;3625;51.762;14.320;2022-12-18T09:01:46;102616.75;;;-2.46;100.00
7168;BME280;3625;51.762;14.320;2022-12-18T09:04:17;102589.66;;;-2.51;100.00
7168;BME280;3625;51.762;14.320;2022-12-18T09:06:46;102669.66;;;-2.03;100.00
7168;BME280;3625;51.762;14.320;2022-12-18T09:09:15;102674.94;;;-2.02;100.00
7168;BME280;3625;51.762;14.320;2022-12-18T09:11:43;102589.72;;;-2.50;100.00
7168;BME280;3625;51.762;14.320;2022-12-18T09:14:12;102669.16;;;-2.11;100.00
7168;BME280;3625;51.762;14.320;2022-12-18T09:16:41;102671.16;;;-2.07;100.00
7168;BME280;3625;51.762;14.320;2022-12-18T09:19:10;102669.25;;;-1.96;100.00
7168;BME280;3625;51.762;14.320;2022-12-18T09:21:40;102665.06;;;-1.94;100.00
7168;BME280;3625;51.762;14.320;2022-12-18T09:24:15;102653.00;;;-1.94;100.00
7168;BME280;3625;51.762;14.320;2022-12-18T09:26:44;102579.88;;;-2.42;100.00
7168;BME280;3625;51.762;14.320;2022-12-18T09:29:14;102653.88;;;-1.93;100.00
7168;BME280;3625;51.762;14.320;2022-12-18T09:31:45;102660.16;;;-1.90;100.00
7168;BME280;3625;51.762;14.320;2022-12-18T09:34:14;102676.59;;;-1.76;100.00
7168;BME280;3625;51.762;14.320;2022-12-18T09:36:44;102690.38;;;-1.77;100.00
7168;BME280;3625;51.762;14.320;2022-12-18T09:39:13;102691.16;;;-1.78;100.00
7168;BME280;3625;51.762;14.320;2022-12-18T09:41:45;102690.97;;;-1.81;100.00
7168;BME280;3625;51.762;14.320;2022-12-18T09:44:24;102693.69;;;-1.93;100.00
7168;BME280;3625;51.762;14.320;2022-12-18T09:47:07;102671.66;;;-2.12;100.00
7168;BME280;3625;51.762;14.320;2022-12-18T09:49:43;102701.75;;;-1.88;100.00
7168;BME280;3625;51.762;14.320;2022-12-18T09:52:24;102684.91;;;-1.95;100.00
7168;BME280;3625;51.762;14.320;2022-12-18T09:55:01;102709.06;;;-1.82;100.00
7168;BME280;3625;51.762;14.320;2022-12-18T09:57:33;102719.81;;;-1.76;100.00
7168;BME280;3625;51.762;14.320;2022-12-18T10:00:19;102671.44;;;-2.15;100.00
7168;BME280;3625;51.762;14.320;2022-12-18T10:02:48;102703.56;;;-1.87;100.00
7168;BME280;3625;51.762;14.320;2022-12-18T10:05:30;102702.66;;;-1.87;100.00
7168;BME280;3625;51.762;14.320;2022-12-18T10:08:10;102708.53;;;-1.77;100.00
7168;BME280;3625;51.762;14.320;2022-12-18T10:10:48;102718.59;;;-1.81;100.00
7168;BME280;3625;51.762;14.320;2022-12-18T10:13:27;102705.25;;;-1.74;100.00
7168;BME280;3625;51.762;14.320;2022-12-18T10:16:09;102662.38;;;-1.96;100.00
7168;BME280;3625;51.762;14.320;2022-12-18T10:19:20;102688.78;;;-1.75;100.00
7168;BME280;3625;51.762;14.320;2022-12-18T10:22:02;102644.22;;;-1.96;100.00
7168;BME280;3625;51.762;14.320;2022-12-18T10:24:43;102615.31;;;-2.02;100.00
7168;BME280;3625;51.762;14.320;2022-12-18T10:27:16;102631.72;;;-1.88;100.00
7168;BME280;3625;51.762;14.320;2022-12-18T10:29:46;102663.34;;;-1.53;100.00
7168;BME280;3625;51.762;14.320;2022-12-18T10:32:18;102570.19;;;-1.91;100.00
7168;BME280;3625;51.762;14.320;2022-12-18T10:34:48;102653.34;;;-1.46;100.00
7168;BME280;3625;51.762;14.320;2022-12-18T10:37:29;102657.13;;;-1.41;100.00
7168;BME280;3625;51.762;14.320;2022-12-18T10:40:13;102613.91;;;-1.69;100.00
7168;BME280;3625;51.762;14.320;2022-12-18T10:43:04;102645.28;;;-1.51;100.00
7168;BME280;3625;51.762;14.320;2022-12-18T10:45:33;102621.69;;;-1.69;100.00
7168;BME280;3625;51.762;14.320;2022-12-18T10:48:03;102644.66;;;-1.47;100.00
7168;BME280;3625;51.762;14.320;2022-12-18T10:50:35;102558.19;;;-1.88;100.00
7168;BME280;3625;51.762;14.320;2022-12-18T10:53:26;102628.72;;;-1.53;100.00
7168;BME280;3625;51.762;14.320;2022-12-18T10:55:59;102653.91;;;-1.37;100.00
7168;BME280;3625;51.762;14.320;2022-12-18T10:58:30;102647.13;;;-1.35;100.00
7168;BME280;3625;51.762;14.320;2022-12-18T11:01:08;102643.13;;;-1.30;100.00
7168;BME280;3625;51.762;14.320;2022-12-18T11:03:40;102628.34;;;-1.31;100.00
7168;BME280;3625;51.762;14.320;2022-12-18T11:06:12;102641.09;;;-1.21;100.00
7168;BME280;3625;51.762;14.320;2022-12-18T11:08:44;102637.03;;;-1.16;100.00
7168;BME280;3625;51.762;14.320;2022-12-18T11:11:26;102622.72;;;-1.09;100.00
7168;BME280;3625;51.762;14.320;2022-12-18T11:14:01;102552.41;;;-1.42;100.00
7168;BME280;3625;51.762;14.320;2022-12-18T11:16:37;102616.28;;;-1.16;100.00
7168;BME280;3625;51.762;14.320;2022-12-18T11:19:35;102550.75;;;-1.55;100.00
7168;BME280;3625;51.762;14.320;2022-12-18T11:22:20;102533.88;;;-1.91;100.00
7168;BME280;3625;51.762;14.320;2022-12-18T11:24:56;102561.81;;;-1.72;100.00
7168;BME280;3625;51.762;14.320;2022-12-18T11:27:52;102481.72;;;-2.23;100.00
7168;BME280;3625;51.762;14.320;2022-12-18T11:30:25;102580.69;;;-2.02;100.00
7168;BME280;3625;51.762;14.320;2022-12-18T11:32:59;102587.66;;;-2.01;100.00
7168;BME280;3625;51.762;14.320;2022-12-18T11:35:44;102572.69;;;-1.92;100.00
7168;BME280;3625;51.762;14.320;2022-12-18T11:38:22;102606.72;;;-1.73;100.00
7168;BME280;3625;51.762;14.320;2022-12-18T11:40:58;102594.00;;;-1.83;100.00
7168;BME280;3625;51.762;14.320;2022-12-18T11:43:38;102571.72;;;-2.07;100.00
7168;BME280;3625;51.762;14.320;2022-12-18T11:46:17;102601.22;;;-1.92;100.00
7168;BME280;3625;51.762;14.320;2022-12-18T11:48:57;102509.38;;;-2.37;100.00
7168;BME280;3625;51.762;14.320;2022-12-18T11:51:33;102607.03;;;-1.81;100.00
7168;BME280;3625;51.762;14.320;2022-12-18T11:54:12;102452.75;;;-2.72;100.00
7168;BME280;3625;51.762;14.320;2022-12-18T11:56:48;102597.56;;;-1.81;100.00
7168;BME280;3625;51.762;14.320;2022-12-18T11:59:34;102538.63;;;-2.11;100.00
7168;BME280;3625;51.762;14.320;2022-12-18T12:02:29;102609.56;;;-1.55;100.00
7168;BME280;3625;51.762;14.320;2022-12-18T12:05:35;102616.63;;;-1.53;100.00
7168;BME280;3625;51.762;14.320;2022-12-18T12:08:15;102501.56;;;-2.23;100.00
7168;BME280;3625;51.762;14.320;2022-12-18T12:11:00;102534.13;;;-2.14;100.00
7168;BME280;3625;51.762;14.320;2022-12-18T12:13:48;102574.94;;;-1.83;100.00
7168;BME280;3625;51.762;14.320;2022-12-18T12:16:28;102522.69;;;-2.17;100.00
7168;BME280;3625;51.762;14.320;2022-12-18T12:19:22;102591.78;;;-1.77;100.00
7168;BME280;3625;51.762;14.320;2022-12-18T12:22:07;102612.31;;;-1.67;100.00
7168;BME280;3625;51.762;14.320;2022-12-18T12:24:53;102619.69;;;-1.73;100.00
7168;BME280;3625;51.762;14.320;2022-12-18T12:27:34;102622.69;;;-1.67;100.00
7168;BME280;3625;51.762;14.320;2022-12-18T12:30:11;102604.44;;;-1.68;100.00
7168;BME280;3625;51.762;14.320;2022-12-18T12:33:11;102581.97;;;-1.68;100.00
7168;BME280;3625;51.762;14.320;2022-12-18T12:35:52;102598.94;;;-1.45;100.00
7168;BME280;3625;51.762;14.320;2022-12-18T12:38:30;102608.38;;;-1.32;100.00
7168;BME280;3625;51.762;14.320;2022-12-18T12:41:04;102551.41;;;-1.59;100.00
7168;BME280;3625;51.762;14.320;2022-12-18T12:43:57;102580.09;;;-1.56;100.00
7168;BME280;3625;51.762;14.320;2022-12-18T12:46:30;102605.38;;;-1.38;100.00
7168;BME280;3625;51.762;14.320;2022-12-18T12:49:03;102596.78;;;-1.52;100.00
7168;BME280;3625;51.762;14.320;2022-12-18T12:51:40;102618.00;;;-1.72;100.00
7168;BME280;3625;51.762;14.320;2022-12-18T12:54:17;102574.94;;;-2.11;100.00
7168;BME280;3625;51.762;14.320;2022-12-18T12:56:57;102471.88;;;-2.83;100.00
7168;BME280;3625;51.762;14.320;2022-12-18T12:59:39;102578.34;;;-2.39;100.00
7168;BME280;3625;51.762;14.320;2022-12-18T13:02:19;102614.94;;;-2.47;100.00
7168;BME280;3625;51.762;14.320;2022-12-18T13:05:02;102615.44;;;-2.66;100.00
7168;BME280;3625;51.762;14.320;2022-12-18T13:07:40;102596.25;;;-3.08;100.00
7168;BME280;3625;51.762;14.320;2022-12-18T13:10:26;102626.75;;;-3.03;100.00
7168;BME280;3625;51.762;14.320;2022-12-18T13:13:02;102550.16;;;-3.51;100.00
7168;BME280;3625;51.762;14.320;2022-12-18T13:15:41;102463.09;;;-4.02;100.00
7168;BME280;3625;51.762;14.320;2022-12-18T13:18:19;102586.63;;;-3.35;100.00
7168;BME280;3625;51.762;14.320;2022-12-18T13:21:01;102473.94;;;-3.94;100.00
7168;BME280;3625;51.762;14.320;2022-12-18T13:23:33;102477.44;;;-3.94;100.00
7168;BME280;3625;51.762;14.320;2022-12-18T13:26:32;102576.28;;;-3.35;100.00